createdAt,value
2016-12-14T00:00:10.996Z,6.9
2016-12-14T00:01:16.997Z,6.9
2016-12-14T00:02:22.998Z,6.9
2016-12-14T00:03:29.000Z,6.9
2016-12-14T00:04:35.008Z,6.9
2016-12-14T00:05:41.009Z,7
2016-12-14T00:06:47.019Z,7
2016-12-14T00:07:53.007Z,7
2016-12-14T00:08:59.012Z,7
2016-12-14T00:10:05.014Z,7
2016-12-14T00:11:11.026Z,7
2016-12-14T00:12:17.012Z,6.9
2016-12-14T00:13:23.008Z,6.9
2016-12-14T00:14:29.013Z,6.9
2016-12-14T00:15:35.011Z,7
2016-12-14T00:16:41.003Z,7
2016-12-14T00:17:47.001Z,7
2016-12-14T00:18:53.007Z,7
2016-12-14T00:19:59.009Z,7
2016-12-14T00:21:05.005Z,7
2016-12-14T00:22:11.012Z,7
2016-12-14T00:23:17.008Z,7
2016-12-14T00:24:23.007Z,6.9
2016-12-14T00:25:29.003Z,7
2016-12-14T00:26:35.006Z,7
2016-12-14T00:27:40.996Z,7
2016-12-14T00:28:46.996Z,7
2016-12-14T00:29:52.999Z,7
2016-12-14T00:30:58.993Z,7
2016-12-14T00:32:04.990Z,7.1
2016-12-14T00:33:10.988Z,7.1
2016-12-14T00:34:16.998Z,7
2016-12-14T00:35:23.001Z,7
2016-12-14T00:36:29.000Z,7
2016-12-14T00:37:35.003Z,7
2016-12-14T00:38:41.008Z,7
2016-12-14T00:39:47.009Z,7.1
2016-12-14T00:40:53.012Z,7
2016-12-14T00:41:59.018Z,7
2016-12-14T00:43:04.277Z,7
2016-12-14T00:44:10.281Z,7
2016-12-14T00:45:16.279Z,7.1
2016-12-14T00:46:22.263Z,7.1
2016-12-14T00:47:28.264Z,7
2016-12-14T00:48:34.271Z,7
2016-12-14T00:49:40.283Z,7.1
2016-12-14T00:50:46.271Z,7.1
2016-12-14T00:51:52.272Z,7.1
2016-12-14T00:52:58.273Z,7.1
2016-12-14T00:54:04.276Z,7.1
2016-12-14T00:55:10.279Z,7.1
2016-12-14T00:56:16.275Z,7.1
2016-12-14T00:57:22.276Z,7.1
2016-12-14T00:58:28.273Z,7.1
2016-12-14T00:59:34.265Z,7.1
2016-12-14T01:00:40.268Z,7.1
2016-12-14T01:01:46.265Z,7.1
2016-12-14T01:02:52.260Z,7.1
2016-12-14T01:03:58.254Z,7.1
2016-12-14T01:05:04.257Z,7.1
2016-12-14T01:06:10.256Z,7
2016-12-14T01:07:16.249Z,7.1
2016-12-14T01:08:22.258Z,7.1
2016-12-14T01:09:28.260Z,7.1
2016-12-14T01:10:34.259Z,7.1
2016-12-14T01:11:40.254Z,7.1
2016-12-14T01:12:46.261Z,7.1
2016-12-14T01:13:52.262Z,7.1
2016-12-14T01:14:58.266Z,7.1
2016-12-14T01:16:03.168Z,7.1
2016-12-14T01:17:09.165Z,7.1
2016-12-14T01:18:15.167Z,7.1
2016-12-14T01:19:21.166Z,7.2
2016-12-14T01:20:27.174Z,7.2
2016-12-14T01:21:33.176Z,7.2
2016-12-14T01:22:39.179Z,7.2
2016-12-14T01:23:45.183Z,7.2
2016-12-14T01:24:51.186Z,7.1
2016-12-14T01:25:57.189Z,7.1
2016-12-14T01:27:03.189Z,7.1
2016-12-14T01:28:09.179Z,7.1
2016-12-14T01:29:15.185Z,7.1
2016-12-14T01:30:21.188Z,7.1
2016-12-14T01:31:27.178Z,7.1
2016-12-14T01:32:33.192Z,7.1
2016-12-14T01:33:39.190Z,7.1
2016-12-14T01:34:45.191Z,7.1
2016-12-14T01:35:51.181Z,7.1
2016-12-14T01:36:57.189Z,7.1
2016-12-14T01:38:03.191Z,7.1
2016-12-14T01:39:09.189Z,7
2016-12-14T01:40:15.190Z,7
2016-12-14T01:41:21.195Z,7
2016-12-14T01:42:27.189Z,7.1
2016-12-14T01:43:33.193Z,7.1
2016-12-14T01:44:39.199Z,7.1
2016-12-14T01:45:45.195Z,7.1
2016-12-14T01:46:51.193Z,7.1
2016-12-14T01:47:57.240Z,7.1
2016-12-14T01:49:03.242Z,7.1
2016-12-14T01:50:09.240Z,7.1
2016-12-14T01:51:15.245Z,7.1
2016-12-14T01:52:21.246Z,7.1
2016-12-14T01:53:27.243Z,7.1
2016-12-14T01:54:33.241Z,7.1
2016-12-14T01:55:39.237Z,7.1
2016-12-14T01:56:45.235Z,7.1
2016-12-14T01:57:51.229Z,7.1
2016-12-14T01:58:57.233Z,7.1
2016-12-14T02:00:03.236Z,7.1
2016-12-14T02:01:09.234Z,7.1
2016-12-14T02:02:15.239Z,7.1
2016-12-14T02:03:21.235Z,7
2016-12-14T02:04:27.232Z,7
2016-12-14T02:05:33.230Z,7.1
2016-12-14T02:06:39.220Z,7
2016-12-14T02:07:45.224Z,7
2016-12-14T02:08:51.222Z,7.1
2016-12-14T02:09:57.221Z,7.1
2016-12-14T02:11:03.225Z,7.1
2016-12-14T02:12:09.230Z,7.1
2016-12-14T02:13:15.234Z,7.1
2016-12-14T02:14:21.223Z,7.1
2016-12-14T02:15:27.222Z,7.1
2016-12-14T02:16:33.226Z,7.1
2016-12-14T02:17:39.222Z,7.2
2016-12-14T02:18:45.224Z,7.2
2016-12-14T02:19:51.229Z,7.2
2016-12-14T02:20:57.232Z,7.2
2016-12-14T02:22:03.226Z,7.2
2016-12-14T02:23:09.227Z,7.2
2016-12-14T02:24:15.223Z,7.2
2016-12-14T02:25:21.224Z,7.1
2016-12-14T02:26:27.224Z,7.1
2016-12-14T02:27:33.234Z,7.1
2016-12-14T02:28:39.234Z,7.2
2016-12-14T02:29:45.232Z,7.2
2016-12-14T02:30:51.235Z,7.2
2016-12-14T02:31:57.240Z,7.2
2016-12-14T02:33:03.239Z,7.2
2016-12-14T02:34:09.243Z,7.2
2016-12-14T02:35:15.237Z,7.2
2016-12-14T02:36:21.244Z,7.2
2016-12-14T02:37:27.244Z,7.2
2016-12-14T02:38:33.245Z,7.3
2016-12-14T02:39:39.233Z,7.2
2016-12-14T02:40:45.238Z,7.2
2016-12-14T02:41:51.233Z,7.2
2016-12-14T02:42:57.232Z,7.2
2016-12-14T02:44:03.224Z,7.2
2016-12-14T02:45:09.232Z,7.1
2016-12-14T02:46:15.231Z,7.2
2016-12-14T02:47:21.226Z,7.2
2016-12-14T02:48:26.484Z,7.2
2016-12-14T02:49:32.486Z,7.2
2016-12-14T02:50:38.485Z,7.3
2016-12-14T02:51:44.483Z,7.3
2016-12-14T02:52:50.482Z,7.3
2016-12-14T02:53:56.474Z,7.3
2016-12-14T02:55:02.471Z,7.3
2016-12-14T02:56:08.469Z,7.2
2016-12-14T02:57:14.467Z,7.2
2016-12-14T02:58:20.465Z,7.2
2016-12-14T02:59:26.462Z,7.2
2016-12-14T03:00:32.462Z,7.2
2016-12-14T03:01:38.456Z,7.2
2016-12-14T03:02:44.462Z,7.2
2016-12-14T03:03:50.459Z,7.3
2016-12-14T03:04:56.458Z,7.3
2016-12-14T03:06:02.458Z,7.3
2016-12-14T03:07:08.455Z,7.2
2016-12-14T03:08:14.442Z,7.2
2016-12-14T03:09:20.450Z,7.3
2016-12-14T03:10:26.445Z,7.2
2016-12-14T03:11:32.438Z,7.3
2016-12-14T03:12:38.442Z,7.3
2016-12-14T03:13:44.448Z,7.3
2016-12-14T03:14:50.444Z,7.3
2016-12-14T03:15:56.440Z,7.3
2016-12-14T03:17:02.446Z,7.2
2016-12-14T03:18:08.440Z,7.3
2016-12-14T03:19:14.436Z,7.3
2016-12-14T03:20:20.430Z,7.3
2016-12-14T03:21:26.435Z,7.3
2016-12-14T03:22:32.431Z,7.3
2016-12-14T03:23:38.429Z,7.4
2016-12-14T03:24:44.428Z,7.4
2016-12-14T03:25:50.428Z,7.4
2016-12-14T03:26:56.424Z,7.4
2016-12-14T03:28:02.420Z,7.4
2016-12-14T03:29:08.422Z,7.4
2016-12-14T03:30:14.428Z,7.3
2016-12-14T03:31:20.431Z,7.4
2016-12-14T03:32:26.434Z,7.3
2016-12-14T03:33:32.432Z,7.4
2016-12-14T03:34:38.431Z,7.4
2016-12-14T03:35:44.433Z,7.3
2016-12-14T03:36:50.429Z,7.3
2016-12-14T03:37:56.425Z,7.4
2016-12-14T03:39:02.425Z,7.4
2016-12-14T03:40:08.423Z,7.4
2016-12-14T03:41:14.430Z,7.4
2016-12-14T03:42:20.432Z,7.4
2016-12-14T03:43:26.437Z,7.4
2016-12-14T03:44:32.434Z,7.4
2016-12-14T03:45:38.443Z,7.4
2016-12-14T03:46:44.440Z,7.4
2016-12-14T03:47:50.434Z,7.4
2016-12-14T03:48:56.440Z,7.4
2016-12-14T03:50:02.442Z,7.4
2016-12-14T03:51:08.437Z,7.4
2016-12-14T03:52:14.435Z,7.3
2016-12-14T03:53:20.433Z,7.3
2016-12-14T03:54:26.486Z,7.3
2016-12-14T03:55:32.487Z,7.3
2016-12-14T03:56:38.485Z,7.3
2016-12-14T03:57:44.480Z,7.3
2016-12-14T03:58:50.479Z,7.3
2016-12-14T03:59:56.486Z,7.3
2016-12-14T04:01:02.481Z,7.3
2016-12-14T04:02:08.476Z,7.4
2016-12-14T04:03:14.479Z,7.4
2016-12-14T04:04:20.475Z,7.4
2016-12-14T04:05:26.471Z,7.4
2016-12-14T04:06:32.471Z,7.4
2016-12-14T04:07:38.473Z,7.4
2016-12-14T04:08:44.477Z,7.4
2016-12-14T04:09:50.480Z,7.4
2016-12-14T04:10:56.485Z,7.4
2016-12-14T04:12:02.475Z,7.4
2016-12-14T04:13:08.479Z,7.4
2016-12-14T04:14:14.479Z,7.4
2016-12-14T04:15:20.474Z,7.4
2016-12-14T04:16:26.483Z,7.4
2016-12-14T04:17:32.485Z,7.3
2016-12-14T04:18:38.486Z,7.3
2016-12-14T04:19:44.482Z,7.3
2016-12-14T04:20:50.488Z,7.4
2016-12-14T04:21:56.526Z,7.4
2016-12-14T04:23:02.524Z,7.4
2016-12-14T04:24:08.521Z,7.4
2016-12-14T04:25:14.529Z,7.4
2016-12-14T04:26:20.523Z,7.4
2016-12-14T04:27:26.525Z,7.4
2016-12-14T04:28:32.526Z,7.4
2016-12-14T04:29:38.532Z,7.4
2016-12-14T04:30:44.526Z,7.4
2016-12-14T04:31:50.528Z,7.3
2016-12-14T04:32:56.536Z,7.3
2016-12-14T04:34:02.534Z,7.3
2016-12-14T04:35:08.534Z,7.3
2016-12-14T04:36:14.523Z,7.4
2016-12-14T04:37:20.525Z,7.4
2016-12-14T04:38:26.532Z,7.4
2016-12-14T04:39:32.532Z,7.4
2016-12-14T04:40:37.788Z,7.4
2016-12-14T04:41:43.786Z,7.4
2016-12-14T04:42:49.782Z,7.4
2016-12-14T04:43:55.778Z,7.4
2016-12-14T04:45:01.784Z,7.4
2016-12-14T04:46:07.778Z,7.4
2016-12-14T04:47:13.778Z,7.3
2016-12-14T04:48:19.777Z,7.3
2016-12-14T04:49:25.785Z,7.3
2016-12-14T04:50:31.776Z,7.4
2016-12-14T04:51:37.780Z,7.4
2016-12-14T04:52:43.780Z,7.3
2016-12-14T04:53:49.790Z,7.4
2016-12-14T04:54:55.784Z,7.4
2016-12-14T04:56:01.781Z,7.4
2016-12-14T04:57:07.777Z,7.4
2016-12-14T04:58:13.778Z,7.4
2016-12-14T04:59:19.776Z,7.4
2016-12-14T05:00:25.771Z,7.4
2016-12-14T05:01:31.770Z,7.4
2016-12-14T05:02:37.767Z,7.4
2016-12-14T05:03:43.764Z,7.4
2016-12-14T05:04:49.763Z,7.4
2016-12-14T05:05:55.764Z,7.4
2016-12-14T05:07:01.762Z,7.4
2016-12-14T05:08:07.757Z,7.4
2016-12-14T05:09:13.760Z,7.4
2016-12-14T05:10:19.762Z,7.4
2016-12-14T05:11:25.766Z,7.4
2016-12-14T05:12:31.762Z,7.3
2016-12-14T05:13:37.761Z,7.3
2016-12-14T05:14:43.764Z,7.3
2016-12-14T05:15:49.758Z,7.3
2016-12-14T05:16:55.759Z,7.3
2016-12-14T05:18:01.760Z,7.2
2016-12-14T05:19:07.766Z,7.3
2016-12-14T05:20:13.765Z,7.3
2016-12-14T05:21:19.764Z,7.3
2016-12-14T05:22:25.765Z,7.3
2016-12-14T05:23:31.793Z,7.4
2016-12-14T05:24:37.767Z,7.3
2016-12-14T05:25:43.765Z,7.3
2016-12-14T05:26:49.765Z,7.3
2016-12-14T05:27:55.819Z,7.3
2016-12-14T05:29:01.821Z,7.3
2016-12-14T05:30:07.819Z,7.3
2016-12-14T05:31:13.819Z,7.3
2016-12-14T05:32:19.817Z,7.3
2016-12-14T05:33:25.811Z,7.3
2016-12-14T05:34:31.810Z,7.3
2016-12-14T05:35:37.809Z,7.3
2016-12-14T05:36:43.806Z,7.3
2016-12-14T05:37:49.811Z,7.3
2016-12-14T05:38:55.815Z,7.3
2016-12-14T05:40:01.817Z,7.3
2016-12-14T05:41:07.814Z,7.3
2016-12-14T05:42:13.813Z,7.2
2016-12-14T05:43:19.809Z,7.3
2016-12-14T05:44:25.817Z,7.3
2016-12-14T05:45:31.818Z,7.3
2016-12-14T05:46:37.815Z,7.3
2016-12-14T05:47:43.810Z,7.3
2016-12-14T05:48:49.814Z,7.3
2016-12-14T05:49:55.812Z,7.3
2016-12-14T05:51:01.825Z,7.3
2016-12-14T05:52:07.816Z,7.3
2016-12-14T05:53:13.824Z,7.3
2016-12-14T05:54:19.817Z,7.3
2016-12-14T05:55:25.819Z,7.3
2016-12-14T05:56:31.824Z,7.2
2016-12-14T05:57:37.829Z,7.2
2016-12-14T05:58:43.821Z,7.3
2016-12-14T05:59:49.824Z,7.3
2016-12-14T06:00:55.826Z,7.3
2016-12-14T06:02:01.818Z,7.3
2016-12-14T06:03:07.819Z,7.3
2016-12-14T06:04:13.822Z,7.3
2016-12-14T06:05:19.824Z,7.3
2016-12-14T06:06:25.824Z,7.3
2016-12-14T06:07:31.831Z,7.3
2016-12-14T06:08:37.824Z,7.3
2016-12-14T06:09:43.822Z,7.4
2016-12-14T06:10:49.824Z,7.4
2016-12-14T06:11:55.827Z,7.4
2016-12-14T06:13:01.826Z,7.4
2016-12-14T06:14:07.827Z,7.3
2016-12-14T06:15:13.827Z,7.3
2016-12-14T06:16:19.830Z,7.3
2016-12-14T06:17:25.825Z,7.2
2016-12-14T06:18:31.829Z,7.3
2016-12-14T06:19:37.828Z,7.3
2016-12-14T06:20:43.831Z,7.3
2016-12-14T06:21:49.828Z,7.4
2016-12-14T06:22:55.827Z,7.4
2016-12-14T06:24:01.825Z,7.3
2016-12-14T06:25:07.823Z,7.3
2016-12-14T06:26:13.825Z,7.3
2016-12-14T06:27:19.830Z,7.3
2016-12-14T06:28:25.882Z,7.3
2016-12-14T06:29:31.882Z,7.3
2016-12-14T06:30:37.874Z,7.3
2016-12-14T06:31:43.882Z,7.3
2016-12-14T06:32:49.881Z,7.3
2016-12-14T06:33:55.885Z,7.3
2016-12-14T06:35:01.881Z,7.3
2016-12-14T06:36:07.891Z,7.3
2016-12-14T06:37:13.890Z,7.4
2016-12-14T06:38:19.887Z,7.4
2016-12-14T06:39:25.880Z,7.4
2016-12-14T06:40:31.888Z,7.4
2016-12-14T06:41:37.887Z,7.4
2016-12-14T06:42:43.883Z,7.4
2016-12-14T06:43:49.881Z,7.4
2016-12-14T06:44:55.886Z,7.4
2016-12-14T06:46:01.886Z,7.3
2016-12-14T06:47:07.884Z,7.4
2016-12-14T06:48:13.889Z,7.3
2016-12-14T06:49:19.884Z,7.3
2016-12-14T06:50:25.893Z,7.3
2016-12-14T06:51:31.889Z,7.3
2016-12-14T06:52:37.891Z,7.3
2016-12-14T06:53:43.896Z,7.3
2016-12-14T06:54:49.143Z,7.3
2016-12-14T06:55:55.140Z,7.4
2016-12-14T06:57:01.146Z,7.4
2016-12-14T06:58:07.148Z,7.4
2016-12-14T06:59:13.139Z,7.4
2016-12-14T07:00:19.145Z,7.3
2016-12-14T07:01:25.146Z,7.3
2016-12-14T07:02:31.152Z,7.4
2016-12-14T07:03:37.145Z,7.4
2016-12-14T07:04:43.154Z,7.4
2016-12-14T07:05:49.148Z,7.3
2016-12-14T07:06:55.146Z,7.3
2016-12-14T07:08:01.135Z,7.3
2016-12-14T07:09:07.138Z,7.2
2016-12-14T07:10:13.134Z,7.2
2016-12-14T07:11:19.138Z,7.2
2016-12-14T07:12:25.140Z,7.2
2016-12-14T07:13:31.139Z,7.2
2016-12-14T07:14:37.134Z,7.2
2016-12-14T07:15:43.132Z,7.1
2016-12-14T07:16:49.134Z,7.1
2016-12-14T07:17:55.131Z,7.1
2016-12-14T07:19:01.129Z,7.1
2016-12-14T07:20:07.131Z,7.1
2016-12-14T07:21:13.133Z,7.1
2016-12-14T07:22:19.134Z,7.1
2016-12-14T07:23:25.134Z,7.1
2016-12-14T07:24:31.131Z,7.1
2016-12-14T07:25:37.129Z,7
2016-12-14T07:26:43.134Z,7
2016-12-14T07:27:49.134Z,7.1
2016-12-14T07:28:55.183Z,7.1
2016-12-14T07:30:01.181Z,7.1
2016-12-14T07:31:07.185Z,7.1
2016-12-14T07:32:13.182Z,7.1
2016-12-14T07:33:19.180Z,7.1
2016-12-14T07:34:25.180Z,7.1
2016-12-14T07:35:31.179Z,7.1
2016-12-14T07:36:37.177Z,7
2016-12-14T07:37:43.175Z,7
2016-12-14T07:38:49.172Z,7
2016-12-14T07:39:55.179Z,7.1
2016-12-14T07:41:01.180Z,7.1
2016-12-14T07:42:07.181Z,7.1
2016-12-14T07:43:13.185Z,7.2
2016-12-14T07:44:19.188Z,7.2
2016-12-14T07:45:25.184Z,7.2
2016-12-14T07:46:31.187Z,7.2
2016-12-14T07:47:37.185Z,7.2
2016-12-14T07:48:43.185Z,7.2
2016-12-14T07:49:49.183Z,7.2
2016-12-14T07:50:55.185Z,7.2
2016-12-14T07:52:01.187Z,7.2
2016-12-14T07:53:07.187Z,7.1
2016-12-14T07:54:13.189Z,7.1
2016-12-14T07:55:19.180Z,7.2
2016-12-14T07:56:25.179Z,7.2
2016-12-14T07:57:31.182Z,7.2
2016-12-14T07:58:37.176Z,7.2
2016-12-14T07:59:43.170Z,7.1
2016-12-14T08:00:49.167Z,7.2
2016-12-14T08:01:55.167Z,7.1
2016-12-14T08:03:01.162Z,7.1
2016-12-14T08:04:07.171Z,7.1
2016-12-14T08:05:13.172Z,7.1
2016-12-14T08:06:19.169Z,7.1
2016-12-14T08:07:25.164Z,7.1
2016-12-14T08:08:31.173Z,7.2
2016-12-14T08:09:37.169Z,7.2
2016-12-14T08:10:43.162Z,7.1
2016-12-14T08:11:49.160Z,7.1
2016-12-14T08:12:55.167Z,7.1
2016-12-14T08:14:01.162Z,7.1
2016-12-14T08:15:07.156Z,7.2
2016-12-14T08:16:13.163Z,7.1
2016-12-14T08:17:19.162Z,7.2
2016-12-14T08:18:25.159Z,7.2
2016-12-14T08:19:31.166Z,7.2
2016-12-14T08:20:37.169Z,7.1
2016-12-14T08:21:43.166Z,7.1
2016-12-14T08:22:49.174Z,7.2
2016-12-14T08:23:55.178Z,7.2
2016-12-14T08:25:01.188Z,7.2
2016-12-14T08:26:07.182Z,7.2
2016-12-14T08:27:13.177Z,7.2
2016-12-14T08:28:19.183Z,7.2
2016-12-14T08:29:25.236Z,7.2
2016-12-14T08:30:31.243Z,7.1
2016-12-14T08:31:37.237Z,7.1
2016-12-14T08:32:43.251Z,7.1
2016-12-14T08:33:49.245Z,7.2
2016-12-14T08:34:55.241Z,7.3
2016-12-14T08:36:01.231Z,7.3
2016-12-14T08:37:07.236Z,7.3
2016-12-14T08:38:13.232Z,7.3
2016-12-14T08:39:19.233Z,7.4
2016-12-14T08:40:25.231Z,7.4
2016-12-14T08:41:31.224Z,7.3
2016-12-14T08:42:37.219Z,7.3
2016-12-14T08:43:43.216Z,7.3
2016-12-14T08:44:49.213Z,7.4
2016-12-14T08:45:55.305Z,7.4
2016-12-14T08:47:01.287Z,7.4
2016-12-14T08:48:07.278Z,7.3
2016-12-14T08:49:13.288Z,7.3
2016-12-14T08:50:19.287Z,7.2
2016-12-14T08:51:25.286Z,7.2
2016-12-14T08:52:31.283Z,7.2
2016-12-14T08:53:37.281Z,7.3
2016-12-14T08:54:43.282Z,7.3
2016-12-14T08:55:49.279Z,7.4
2016-12-14T08:56:55.275Z,7.4
2016-12-14T08:58:01.277Z,7.3
2016-12-14T08:59:07.288Z,7.3
2016-12-14T09:00:13.284Z,7.3
2016-12-14T09:01:19.275Z,7.2
2016-12-14T09:02:25.274Z,7.3
2016-12-14T09:03:31.275Z,7.3
2016-12-14T09:04:37.281Z,7.2
2016-12-14T09:05:43.282Z,7.2
2016-12-14T09:06:49.278Z,7.3
2016-12-14T09:07:55.274Z,7.3
2016-12-14T09:09:01.279Z,7.2
2016-12-14T09:10:07.282Z,7.3
2016-12-14T09:11:13.286Z,7.3
2016-12-14T09:12:19.285Z,7.4
2016-12-14T09:13:25.290Z,7.4
2016-12-14T09:14:31.297Z,7.3
2016-12-14T09:15:37.291Z,7.2
2016-12-14T09:16:43.289Z,7.2
2016-12-14T09:17:49.298Z,7.3
2016-12-14T09:18:55.301Z,7.3
2016-12-14T09:20:01.301Z,7.3
2016-12-14T09:21:07.305Z,7.1
2016-12-14T09:22:13.311Z,7.2
2016-12-14T09:23:19.312Z,7.2
2016-12-14T09:24:25.308Z,7.1
2016-12-14T09:25:31.312Z,7.1
2016-12-14T09:26:37.318Z,7.2
2016-12-14T09:27:43.313Z,7.1
2016-12-14T09:28:49.311Z,7.1
2016-12-14T09:29:55.358Z,7.1
2016-12-14T09:31:01.362Z,7
2016-12-14T09:32:07.361Z,7.1
2016-12-14T09:33:13.368Z,7.1
2016-12-14T09:34:19.373Z,7.1
2016-12-14T09:35:25.374Z,7.1
2016-12-14T09:36:31.371Z,7.1
2016-12-14T09:37:37.373Z,7
2016-12-14T09:38:43.374Z,7.1
2016-12-14T09:39:49.374Z,7.1
2016-12-14T09:40:55.380Z,7.2
2016-12-14T09:42:01.377Z,7.2
2016-12-14T09:43:07.380Z,7.3
2016-12-14T09:44:13.378Z,7.3
2016-12-14T09:45:19.375Z,7.3
2016-12-14T09:46:25.374Z,7.3
2016-12-14T09:47:31.380Z,7.3
2016-12-14T09:48:36.276Z,7.3
2016-12-14T09:49:42.268Z,7.3
2016-12-14T09:50:48.270Z,7.3
2016-12-14T09:51:54.273Z,7.3
2016-12-14T09:53:00.282Z,7.3
2016-12-14T09:54:06.277Z,7.3
2016-12-14T09:55:12.279Z,7.3
2016-12-14T09:56:18.281Z,7.3
2016-12-14T09:57:24.277Z,7.4
2016-12-14T09:58:30.270Z,7.3
2016-12-14T09:59:36.272Z,7.3
2016-12-14T10:00:42.283Z,7.3
2016-12-14T10:01:48.285Z,7.2
2016-12-14T10:02:54.283Z,7.2
2016-12-14T10:04:00.281Z,7.2
2016-12-14T10:05:06.295Z,7.1
2016-12-14T10:06:12.284Z,7.2
2016-12-14T10:07:18.285Z,7.2
2016-12-14T10:08:24.293Z,7.3
2016-12-14T10:09:30.288Z,7.2
2016-12-14T10:10:36.286Z,7.1
2016-12-14T10:11:42.290Z,7
2016-12-14T10:12:48.296Z,7.1
2016-12-14T10:13:54.290Z,7.1
2016-12-14T10:15:00.280Z,7.1
2016-12-14T10:16:06.279Z,7.1
2016-12-14T10:17:12.286Z,7.1
2016-12-14T10:18:18.278Z,7.1
2016-12-14T10:19:24.278Z,7
2016-12-14T10:20:30.280Z,7.1
2016-12-14T10:21:36.287Z,7
2016-12-14T10:22:42.280Z,7.1
2016-12-14T10:23:48.278Z,7.1
2016-12-14T10:24:54.273Z,7.1
2016-12-14T10:26:00.275Z,7.1
2016-12-14T10:27:06.273Z,7.2
2016-12-14T10:28:12.269Z,7.2
2016-12-14T10:29:18.266Z,7.1
2016-12-14T10:30:24.319Z,7.1
2016-12-14T10:31:30.318Z,7.1
2016-12-14T10:32:36.313Z,7.1
2016-12-14T10:33:42.307Z,7
2016-12-14T10:34:48.303Z,7
2016-12-14T10:35:54.298Z,7
2016-12-14T10:37:00.301Z,7.1
2016-12-14T10:38:06.304Z,7.1
2016-12-14T10:39:12.305Z,7
2016-12-14T10:40:18.300Z,7
2016-12-14T10:41:24.303Z,7
2016-12-14T10:42:30.305Z,7
2016-12-14T10:43:36.304Z,6.8
2016-12-14T10:44:42.297Z,6.8
2016-12-14T10:45:48.296Z,6.9
2016-12-14T10:46:54.299Z,6.9
2016-12-14T10:48:00.294Z,7
2016-12-14T10:49:06.292Z,6.9
2016-12-14T10:50:12.296Z,6.8
2016-12-14T10:51:18.293Z,6.8
2016-12-14T10:52:24.295Z,6.9
2016-12-14T10:53:30.295Z,6.9
2016-12-14T10:54:36.307Z,6.9
2016-12-14T10:55:42.307Z,6.9
2016-12-14T10:56:48.308Z,6.9
2016-12-14T10:57:54.305Z,7
2016-12-14T10:59:00.309Z,7
2016-12-14T11:00:06.312Z,7
2016-12-14T11:01:12.309Z,7
2016-12-14T11:02:18.308Z,7
2016-12-14T11:03:24.307Z,7
2016-12-14T11:04:30.303Z,7
2016-12-14T11:05:36.307Z,6.9
2016-12-14T11:06:42.308Z,6.9
2016-12-14T11:07:48.297Z,6.9
2016-12-14T11:08:54.297Z,6.9
2016-12-14T11:10:00.296Z,6.9
2016-12-14T11:11:06.300Z,6.9
2016-12-14T11:12:12.301Z,6.9
2016-12-14T11:13:18.303Z,7
2016-12-14T11:14:24.303Z,7
2016-12-14T11:15:30.301Z,7
2016-12-14T11:16:36.310Z,7
2016-12-14T11:17:42.301Z,7.1
2016-12-14T11:18:48.302Z,7.1
2016-12-14T11:19:54.299Z,7
2016-12-14T11:21:00.307Z,7
2016-12-14T11:22:06.303Z,7.1
2016-12-14T11:23:12.303Z,7.1
2016-12-14T11:24:18.302Z,7.1
2016-12-14T11:25:24.303Z,7.1
2016-12-14T11:26:30.293Z,7.2
2016-12-14T11:27:36.294Z,7.2
2016-12-14T11:29:51.076Z,7.2
2016-12-14T11:30:57.100Z,7.2
2016-12-14T11:32:03.127Z,7.2
2016-12-14T11:33:09.160Z,7.2
2016-12-14T11:34:15.174Z,7.3
2016-12-14T11:35:21.198Z,7.3
2016-12-14T11:36:27.225Z,7.4
2016-12-14T11:37:33.237Z,7.4
2016-12-14T11:38:39.257Z,7.3
2016-12-14T11:39:45.282Z,7.4
2016-12-14T11:40:51.306Z,7.5
2016-12-14T11:41:57.369Z,7.5
2016-12-14T11:43:03.393Z,7.5
2016-12-14T11:44:09.416Z,7.5
2016-12-14T11:45:15.437Z,7.4
2016-12-14T11:46:21.455Z,7.5
2016-12-14T11:47:27.482Z,7.5
2016-12-14T11:48:33.500Z,7.5
2016-12-14T11:49:39.529Z,7.5
2016-12-14T11:50:45.553Z,7.5
2016-12-14T11:51:51.577Z,7.5
2016-12-14T11:52:57.601Z,7.5
2016-12-14T11:54:03.634Z,7.5
2016-12-14T11:55:09.645Z,7.5
2016-12-14T11:56:15.660Z,7.5
2016-12-14T11:57:21.689Z,7.5
2016-12-14T11:58:27.718Z,7.5
2016-12-14T11:59:33.735Z,7.5
2016-12-14T12:00:39.757Z,7.5
2016-12-14T12:01:45.783Z,7.4
2016-12-14T12:02:51.807Z,7.5
2016-12-14T12:03:57.826Z,7.4
2016-12-14T12:05:03.847Z,7.4
2016-12-14T12:06:09.867Z,7.4
2016-12-14T12:07:15.884Z,7.4
2016-12-14T12:08:21.902Z,7.4
2016-12-14T12:09:27.915Z,7.5
2016-12-14T12:10:33.943Z,7.4
2016-12-14T12:11:39.963Z,7.4
2016-12-14T12:12:45.979Z,7.4
2016-12-14T12:13:52.010Z,7.4
2016-12-14T12:14:58.033Z,7.5
2016-12-14T12:16:04.050Z,7.4
2016-12-14T12:17:10.073Z,7.5
2016-12-14T12:18:16.095Z,7.5
2016-12-14T12:19:22.127Z,7.4
2016-12-14T12:20:28.149Z,7.4
2016-12-14T12:21:34.171Z,7.4
2016-12-14T12:22:40.192Z,7.2
2016-12-14T12:23:46.219Z,7.3
2016-12-14T12:24:52.243Z,7.4
2016-12-14T12:25:58.265Z,7.5
2016-12-14T12:27:04.284Z,7.5
2016-12-14T12:28:10.308Z,7.5
2016-12-14T12:29:16.336Z,7.5
2016-12-14T12:30:22.360Z,7.5
2016-12-14T12:31:28.384Z,7.5
2016-12-14T12:32:34.409Z,7.5
2016-12-14T12:33:40.429Z,7.5
2016-12-14T12:34:46.456Z,7.5
2016-12-14T12:35:52.480Z,7.5
2016-12-14T12:36:58.499Z,7.5
2016-12-14T12:38:04.529Z,7.4
2016-12-14T12:39:10.555Z,7.4
2016-12-14T12:40:16.576Z,7.3
2016-12-14T12:41:22.608Z,7.4
2016-12-14T12:42:28.623Z,7.4
2016-12-14T12:43:34.642Z,7.4
2016-12-14T12:44:40.662Z,7.4
2016-12-14T12:45:46.690Z,7.4
2016-12-14T12:46:52.707Z,7.4
2016-12-14T12:47:58.740Z,7.4
2016-12-14T12:49:04.757Z,7.5
2016-12-14T12:50:10.784Z,7.4
2016-12-14T12:51:16.797Z,7.4
2016-12-14T12:52:22.827Z,7.4
2016-12-14T12:53:28.856Z,7.3
2016-12-14T12:54:34.872Z,7.4
2016-12-14T12:55:40.886Z,7.4
2016-12-14T12:56:46.909Z,7.4
2016-12-14T12:57:52.932Z,7.4
2016-12-14T12:58:58.943Z,7.4
2016-12-14T13:00:04.970Z,7.4
2016-12-14T13:01:10.986Z,7.4
2016-12-14T13:02:17.007Z,7.4
2016-12-14T13:03:23.028Z,7.4
2016-12-14T13:04:29.056Z,7.4
2016-12-14T13:05:35.071Z,7.4
2016-12-14T13:06:39.991Z,7.4
2016-12-14T13:07:46.012Z,7.4
2016-12-14T13:08:52.037Z,7.4
2016-12-14T13:09:58.054Z,7.4
2016-12-14T13:11:04.084Z,7.4
2016-12-14T13:12:10.106Z,7.4
2016-12-14T13:13:16.129Z,7.4
2016-12-14T13:14:22.143Z,7.4
2016-12-14T13:15:28.176Z,7.4
2016-12-14T13:16:34.193Z,7.3
2016-12-14T13:17:39.474Z,7.4
2016-12-14T13:18:45.493Z,7.4
2016-12-14T13:19:51.531Z,7.4
2016-12-14T13:20:56.795Z,7.4
2016-12-14T13:22:02.811Z,7.3
2016-12-14T13:23:08.837Z,7.4
2016-12-14T13:24:14.864Z,7.3
2016-12-14T13:25:20.888Z,7.4
2016-12-14T13:26:26.951Z,7.4
2016-12-14T13:27:32.968Z,7.4
2016-12-14T13:28:38.995Z,7.4
2016-12-14T13:29:45.018Z,7.3
2016-12-14T13:30:51.040Z,7.4
2016-12-14T13:31:57.057Z,7.3
2016-12-14T13:33:03.083Z,7.3
2016-12-14T13:34:09.104Z,7.3
2016-12-14T13:35:15.121Z,7.3
2016-12-14T13:36:21.138Z,7.3
2016-12-14T13:37:27.167Z,7.3
2016-12-14T13:38:33.188Z,7.3
2016-12-14T13:39:39.214Z,7.3
2016-12-14T13:40:45.239Z,7.3
2016-12-14T13:41:51.266Z,7.2
2016-12-14T13:42:57.288Z,7.2
2016-12-14T13:44:03.307Z,7.2
2016-12-14T13:45:09.336Z,7.2
2016-12-14T13:46:15.358Z,7.2
2016-12-14T13:47:21.376Z,7.3
2016-12-14T13:48:27.397Z,7.1
2016-12-14T13:49:33.426Z,7.2
2016-12-14T13:50:39.451Z,7.2
2016-12-14T13:51:45.475Z,7.2
2016-12-14T13:52:51.493Z,7.2
2016-12-14T13:53:57.513Z,7.1
2016-12-14T13:55:03.531Z,7.2
2016-12-14T13:56:09.560Z,7.2
2016-12-14T13:57:15.581Z,7.2
2016-12-14T13:58:21.608Z,7.2
2016-12-14T13:59:27.781Z,7.2
2016-12-14T14:00:33.806Z,7.2
2016-12-14T14:01:39.826Z,7.2
2016-12-14T14:02:45.846Z,7.1
2016-12-14T14:03:51.861Z,7.1
2016-12-14T14:04:57.877Z,7.1
2016-12-14T14:06:03.896Z,7.1
2016-12-14T14:07:09.913Z,7.1
2016-12-14T14:08:15.933Z,7.1
2016-12-14T14:09:21.953Z,7.1
2016-12-14T14:10:27.984Z,7.1
2016-12-14T14:11:34.002Z,7.1
2016-12-14T14:12:40.025Z,7.1
2016-12-14T14:13:46.045Z,7
2016-12-14T14:14:52.059Z,7.1
2016-12-14T14:15:58.084Z,7
2016-12-14T14:17:04.108Z,7
2016-12-14T14:18:10.137Z,7
2016-12-14T14:19:16.152Z,7
2016-12-14T14:20:22.181Z,6.9
2016-12-14T14:21:28.207Z,6.9
2016-12-14T14:22:34.232Z,6.9
2016-12-14T14:23:40.248Z,6.9
2016-12-14T14:24:46.273Z,6.9
2016-12-14T14:25:52.296Z,6.9
2016-12-14T14:26:58.317Z,6.9
2016-12-14T14:28:04.350Z,6.9
2016-12-14T14:29:10.373Z,6.9
2016-12-14T14:30:16.395Z,6.9
2016-12-14T14:31:22.411Z,6.9
2016-12-14T14:32:28.436Z,6.7
2016-12-14T14:33:34.452Z,6.8
2016-12-14T14:34:40.469Z,6.8
2016-12-14T14:35:46.485Z,6.8
2016-12-14T14:36:52.520Z,6.8
2016-12-14T14:37:58.539Z,6.8
2016-12-14T14:39:04.567Z,6.8
2016-12-14T14:40:10.587Z,6.8
2016-12-14T14:41:16.618Z,6.8
2016-12-14T14:42:22.651Z,6.7
2016-12-14T14:43:28.671Z,6.8
2016-12-14T14:44:34.696Z,6.8
2016-12-14T14:45:40.715Z,6.8
2016-12-14T14:46:46.734Z,6.8
2016-12-14T14:47:52.758Z,6.8
2016-12-14T14:48:58.776Z,6.8
2016-12-14T14:50:04.795Z,6.8
2016-12-14T14:51:10.822Z,6.8
2016-12-14T14:52:16.847Z,6.7
2016-12-14T14:53:22.869Z,6.8
2016-12-14T14:54:28.883Z,6.7
2016-12-14T14:55:34.923Z,6.7
2016-12-14T14:56:41.283Z,6.7
2016-12-14T14:57:48.524Z,6.7
2016-12-14T14:58:54.802Z,6.8
2016-12-14T15:00:00.964Z,6.8
2016-12-14T15:01:07.879Z,6.8
2016-12-14T15:02:13.721Z,6.7
2016-12-14T15:03:19.714Z,6.7
2016-12-14T15:04:25.834Z,6.6
2016-12-14T15:05:31.870Z,6.6
2016-12-14T15:06:37.893Z,6.6
2016-12-14T15:07:43.909Z,6.6
2016-12-14T15:08:49.927Z,6.6
2016-12-14T15:09:55.952Z,6.6
2016-12-14T15:11:01.985Z,6.7
2016-12-14T15:12:08.003Z,6.6
2016-12-14T15:13:14.026Z,6.6
2016-12-14T15:14:20.043Z,6.6
2016-12-14T15:15:26.064Z,6.5